Garrison, Maryland
Current Conditions -  °F | °C
As of 8:54 AM on Thursday 23 Oct 2014 (Local Time) from KBWI Reporting Station
Broken Clouds Broken Clouds  
Wind Chill: 54°   Ceiling: 3800
Heat Index: 54°   Visibility: 10mi
Dew Point: 43°   Wind: 12mph
Humidity: 66%   Direction: 290°WNW
Pressure: 29.86"   Gusts: 17mph
Location:  39.41°N, 76.76°W
Report Text: KBWI 231254Z 29010G15KT 10SM BKN038 BKN055 BKN110 12/06 A2986 RMK AO2 SLP110 T01220061
Loading
Personal Weather Stations






























Interactive Weather Map
Tropical Storm Tracking
New forecast layout! Learn more

10-Day Weather Forecast

Advertisements
Track Severe Weather on mobile